Time;durP1;ratioP1;P1;durP2;ratioP2;P2;SDS_P1;SDS_P2;PMS_P1;PMS_P2;Temp;Humidity;BMP_temperature;BMP_pressure;BME280_temperature;BME280_humidity;BME280_pressure;Samples;Min_cycle;Max_cycle;Signal;HPM_P1;HPM_P2
2023/07/03 00:00:18;;;;;;;3.70;3.00;;;;;;;22.39;100.00;98784.46;104045;1270;61482;-65
2023/07/03 00:02:51;;;;;;;3.20;2.90;;;;;;;22.36;100.00;98784.75;103942;1268;59794;-65
2023/07/03 00:05:19;;;;;;;6.10;3.10;;;;;;;22.31;100.00;98782.76;103782;1283;72142;-66
2023/07/03 00:07:47;;;;;;;2.90;2.70;;;;;;;22.30;100.00;98784.36;103859;1270;69201;-66
2023/07/03 00:10:15;;;;;;;4.00;2.90;;;;;;;22.27;100.00;98785.25;107347;1260;73845;-67
2023/07/03 00:12:44;;;;;;;3.50;3.10;;;;;;;22.24;100.00;98786.19;104768;1264;61553;-65
2023/07/03 00:15:12;;;;;;;3.50;3.20;;;;;;;22.23;100.00;98783.70;104098;1265;59566;-65
2023/07/03 00:17:39;;;;;;;;;;;;;;;22.22;100.00;98785.52;104273;1266;74343;-65
2023/07/03 00:20:11;;;;;;;3.50;3.20;;;;;;;22.17;100.00;98786.05;104771;1261;69591;-65
2023/07/03 00:22:39;;;;;;;4.80;2.90;;;;;;;22.23;100.00;98784.74;103829;1263;72396;-65
2023/07/03 00:25:07;;;;;;;3.10;2.90;;;;;;;22.09;100.00;98782.40;103933;1265;61340;-65
2023/07/03 00:27:35;;;;;;;4.10;3.50;;;;;;;22.07;100.00;98780.88;103846;1263;59700;-65
2023/07/03 00:30:04;;;;;;;4.00;2.90;;;;;;;21.99;100.00;98781.19;103908;1267;73740;-66
2023/07/03 00:32:31;;;;;;;4.60;3.00;;;;;;;21.97;100.00;98784.89;103875;1260;69358;-67
2023/07/03 00:34:59;;;;;;;7.80;3.20;;;;;;;21.94;100.00;98785.95;103854;1282;72917;-65
2023/07/03 00:37:27;;;;;;;;;;;;;;;21.93;100.00;98791.90;104251;1263;61502;-65
2023/07/03 00:39:55;;;;;;;5.00;3.10;;;;;;;21.87;100.00;98794.36;104070;1266;59728;-67
2023/07/03 00:42:24;;;;;;;3.40;2.80;;;;;;;21.84;100.00;98794.34;103919;1263;72714;-66
2023/07/03 00:44:52;;;;;;;4.60;3.00;;;;;;;21.83;100.00;98799.39;103946;1266;69243;-65
2023/07/03 00:47:20;;;;;;;3.80;3.50;;;;;;;21.77;100.00;98804.05;103799;1278;72387;-65
2023/07/03 00:49:48;;;;;;;4.00;3.50;;;;;;;21.71;100.00;98813.02;104080;1266;61450;-62
2023/07/03 00:52:17;;;;;;;4.50;3.30;;;;;;;21.63;100.00;98815.85;103911;1261;60758;-66
2023/07/03 00:54:44;;;;;;;3.80;3.30;;;;;;;21.61;100.00;98818.41;103964;1266;73311;-63
2023/07/03 00:57:13;;;;;;;3.30;3.10;;;;;;;21.60;100.00;98824.77;103872;1282;70186;-65
2023/07/03 00:59:40;;;;;;;3.40;3.20;;;;;;;21.56;100.00;98827.23;103902;1275;71792;-64
2023/07/03 01:02:19;;;;;;;5.30;3.30;;;;;;;21.54;100.00;98835.84;103913;1264;61377;-64
2023/07/03 01:04:51;;;;;;;5.00;3.40;;;;;;;21.54;100.00;98832.49;103845;1265;60077;-64
2023/07/03 01:07:22;;;;;;;3.70;3.30;;;;;;;21.48;100.00;98837.83;104209;1263;73287;-64
2023/07/03 01:09:55;;;;;;;3.50;3.20;;;;;;;21.46;100.00;98838.15;105883;1260;70107;-64
2023/07/03 01:12:24;;;;;;;3.50;3.20;;;;;;;21.41;100.00;98837.65;106065;1265;72919;-64
2023/07/03 01:14:53;;;;;;;3.60;3.30;;;;;;;21.37;100.00;98841.63;103926;1261;62499;-64
2023/07/03 01:17:21;;;;;;;6.20;3.10;;;;;;;21.33;100.00;98845.64;103784;1278;60095;-65
2023/07/03 01:19:48;;;;;;;5.20;3.20;;;;;;;21.32;100.00;98848.51;103944;1269;71926;-62
2023/07/03 01:22:36;;;;;;;3.30;3.00;;;;;;;21.31;100.00;98850.65;104008;1279;69722;-63
2023/07/03 01:25:08;;;;;;;6.60;3.80;;;;;;;21.30;100.00;98851.05;103854;1266;72561;-67
2023/07/03 01:27:39;;;;;;;5.70;3.90;;;;;;;21.30;100.00;98853.36;103685;1269;62370;-63
2023/07/03 01:30:09;;;;;;;8.70;4.40;;;;;;;21.29;100.00;98854.57;104022;1266;60762;-63
2023/07/03 01:32:37;;;;;;;4.00;3.50;;;;;;;21.32;100.00;98858.50;104230;1264;73026;-64
2023/07/03 01:35:05;;;;;;;4.70;3.90;;;;;;;21.39;100.00;98857.31;104049;1263;69102;-64
2023/07/03 01:37:38;;;;;;;6.10;4.00;;;;;;;21.42;100.00;98859.14;104275;1260;72362;-64
2023/07/03 01:40:07;;;;;;;4.80;4.00;;;;;;;21.48;100.00;98859.86;104080;1262;62464;-64
2023/07/03 01:42:37;;;;;;;4.40;4.00;;;;;;;21.43;100.00;98858.33;104136;1260;60831;-65
2023/07/03 01:45:05;;;;;;;5.40;4.90;;;;;;;21.46;100.00;98854.46;107523;1257;71754;-67
2023/07/03 01:47:33;;;;;;;5.60;5.10;;;;;;;21.50;100.00;98852.64;106073;1257;70326;-65
2023/07/03 01:50:02;;;;;;;5.10;4.70;;;;;;;21.53;100.00;98851.64;104338;1263;72453;-65
2023/07/03 01:52:39;;;;;;;5.60;5.10;;;;;;;21.53;100.00;98853.91;104579;1261;62420;-65
2023/07/03 01:55:19;;;;;;;11.60;5.50;;;;;;;21.56;100.00;98851.64;104390;1262;59879;-66
2023/07/03 01:57:52;;;;;;;5.40;4.90;;;;;;;21.61;100.00;98857.45;104078;1263;72748;-65
2023/07/03 02:00:57;;;;;;;5.40;4.60;;;;;;;21.58;100.00;98859.67;104095;1273;69956;-65
2023/07/03 02:03:35;;;;;;;4.90;4.30;;;;;;;21.56;100.00;98866.11;103689;1286;72260;-64
2023/07/03 02:06:09;;;;;;;6.60;4.60;;;;;;;21.48;100.00;98869.65;104128;1260;62348;-63
2023/07/03 02:08:36;;;;;;;6.20;5.50;;;;;;;21.40;100.00;98871.85;104028;1262;59865;-69
2023/07/03 02:11:12;;;;;;;5.20;4.80;;;;;;;21.39;100.00;98875.66;107226;1256;72902;-65
2023/07/03 02:13:40;;;;;;;9.50;5.20;;;;;;;21.38;100.00;98879.27;105604;1262;69809;-64
2023/07/03 02:16:08;;;;;;;5.90;5.30;;;;;;;21.38;100.00;98878.57;104402;1263;72926;-64
2023/07/03 02:18:36;;;;;;;5.60;5.10;;;;;;;21.37;100.00;98885.23;104211;1273;62273;-65
2023/07/03 02:21:05;;;;;;;7.00;5.40;;;;;;;21.35;100.00;98883.50;104066;1262;59813;-67
2023/07/03 02:23:33;;;;;;;6.90;5.30;;;;;;;21.37;100.00;98882.25;104251;1263;72907;-65
2023/07/03 02:26:01;;;;;;;6.20;5.70;;;;;;;21.42;100.00;98890.76;104328;1269;69164;-64
2023/07/03 02:28:29;;;;;;;;;;;;;;;21.42;100.00;98892.30;103993;1261;72947;-63
2023/07/03 02:30:56;;;;;;;;;;;;;;;21.44;100.00;98894.61;104058;1261;61446;-63
2023/07/03 02:33:24;;;;;;;6.80;6.30;;;;;;;21.47;100.00;98891.88;104318;1266;59860;-66
2023/07/03 02:35:52;;;;;;;7.30;6.70;;;;;;;21.49;100.00;98886.64;104216;1263;72971;-64
2023/07/03 02:38:20;;;;;;;7.30;6.50;;;;;;;21.51;100.00;98886.63;104249;1260;69122;-64
2023/07/03 02:40:47;;;;;;;7.50;6.70;;;;;;;21.57;100.00;98884.75;104371;1255;72439;-64
2023/07/03 02:43:15;;;;;;;8.80;7.40;;;;;;;21.66;100.00;98887.42;104325;1256;61426;-64
2023/07/03 02:45:44;;;;;;;6.70;6.10;;;;;;;21.72;100.00;98889.87;104291;1260;60053;-64
2023/07/03 02:48:13;;;;;;;6.60;5.90;;;;;;;21.74;100.00;98890.13;104287;1270;72904;-64
2023/07/03 02:50:44;;;;;;;7.40;6.70;;;;;;;21.74;100.00;98893.51;103999;1263;69232;-64
2023/07/03 02:53:12;;;;;;;;;;;;;;;21.76;100.00;98897.30;104382;1259;73341;-63
2023/07/03 02:55:40;;;;;;;7.50;6.80;;;;;;;21.78;100.00;98904.91;104310;1257;61378;-62
2023/07/03 02:58:08;;;;;;;8.80;7.10;;;;;;;21.80;100.00;98910.10;104401;1255;60085;-63
2023/07/03 03:00:36;;;;;;;8.10;7.00;;;;;;;21.82;100.00;98916.01;104259;1263;72876;-64
2023/07/03 03:03:04;;;;;;;;;;;;;;;21.85;100.00;98914.59;104267;1260;68167;-62
2023/07/03 03:05:32;;;;;;;8.90;7.40;;;;;;;21.90;100.00;98919.04;104362;1260;72949;-64
2023/07/03 03:08:00;;;;;;;9.30;8.40;;;;;;;21.91;100.00;98920.59;104031;1262;61453;-64
2023/07/03 03:10:28;;;;;;;9.40;7.50;;;;;;;21.95;100.00;98921.45;104366;1260;59730;-63
2023/07/03 03:12:56;;;;;;;;;;;;;;;21.97;100.00;98919.03;107867;1254;72753;-64
2023/07/03 03:15:26;;;;;;;8.70;7.50;;;;;;;22.00;100.00;98922.56;104301;1270;69498;-63
2023/07/03 03:17:53;;;;;;;8.50;7.80;;;;;;;22.04;100.00;98922.33;104496;1263;73079;-63
2023/07/03 03:20:21;;;;;;;9.40;8.60;;;;;;;22.07;100.00;98921.96;104245;1262;60731;-62
2023/07/03 03:22:49;;;;;;;9.50;8.70;;;;;;;22.15;100.00;98921.09;104596;1254;60070;-63
2023/07/03 03:25:17;;;;;;;8.70;7.90;;;;;;;22.18;100.00;98923.52;104432;1262;73336;-63
2023/07/03 03:27:44;;;;;;;;;;;;;;;22.18;100.00;98926.53;104184;1259;69321;-64
2023/07/03 03:30:12;;;;;;;9.90;9.10;;;;;;;22.21;100.00;98930.41;104223;1275;72699;-64
2023/07/03 03:32:42;;;;;;;8.70;8.00;;;;;;;22.23;100.00;98931.42;104257;1260;62141;-65
2023/07/03 03:35:10;;;;;;;9.40;8.50;;;;;;;22.24;100.00;98936.91;104340;1261;59928;-65
2023/07/03 03:37:38;;;;;;;9.30;8.10;;;;;;;22.26;100.00;98941.87;104377;1269;73194;-63
2023/07/03 03:40:08;;;;;;;9.60;8.80;;;;;;;22.29;100.00;98944.73;104568;1254;69199;-64
2023/07/03 03:42:36;;;;;;;9.10;8.30;;;;;;;22.29;100.00;98945.77;104183;1263;72935;-64
2023/07/03 03:45:05;;;;;;;8.90;8.20;;;;;;;22.32;100.00;98949.45;104400;1263;61404;-64
2023/07/03 03:47:33;;;;;;;9.80;8.80;;;;;;;22.36;100.00;98950.28;104329;1254;60479;-64
2023/07/03 03:50:01;;;;;;;11.40;7.70;;;;;;;22.37;100.00;98947.50;107635;1254;73791;-65
2023/07/03 03:52:29;;;;;;;9.50;8.70;;;;;;;22.43;100.00;98950.11;104672;1262;69963;-64
2023/07/03 03:54:58;;;;;;;11.70;8.80;;;;;;;22.47;100.00;98948.73;104682;1265;72317;-64
2023/07/03 03:57:26;;;;;;;9.30;8.50;;;;;;;22.49;100.00;98945.88;104281;1257;61440;-64
2023/07/03 03:59:54;;;;;;;9.80;9.00;;;;;;;22.54;100.00;98948.41;104544;1259;59933;-64
2023/07/03 04:02:22;;;;;;;10.00;9.10;;;;;;;22.56;100.00;98950.31;104464;1254;73668;-64
2023/07/03 04:04:49;;;;;;;9.50;8.70;;;;;;;22.65;100.00;98954.48;104334;1270;69179;-64
2023/07/03 04:07:17;;;;;;;10.60;9.20;;;;;;;22.64;100.00;98962.92;104322;1263;72517;-64
2023/07/03 04:09:45;;;;;;;10.20;9.40;;;;;;;22.67;100.00;98963.02;104430;1260;62341;-64
2023/07/03 04:12:12;;;;;;;10.10;8.60;;;;;;;22.74;100.00;98961.70;107994;1254;59774;-65
2023/07/03 04:14:42;;;;;;;10.80;8.80;;;;;;;22.78;100.00;98962.75;106565;1259;73630;-64
2023/07/03 04:17:10;;;;;;;9.60;8.70;;;;;;;22.80;100.00;98979.87;104401;1259;69405;-63
2023/07/03 04:19:38;;;;;;;10.30;9.40;;;;;;;22.80;100.00;98983.83;104562;1269;72394;-63
2023/07/03 04:22:05;;;;;;;;;;;;;;;22.82;100.00;98981.29;104393;1265;61744;-64
2023/07/03 04:24:34;;;;;;;9.80;8.90;;;;;;;22.81;100.00;98985.08;104301;1255;60485;-64
2023/07/03 04:27:03;;;;;;;10.30;9.10;;;;;;;22.89;100.00;98985.34;104297;1268;73722;-64
2023/07/03 04:29:30;;;;;;;10.40;9.00;;;;;;;22.98;100.00;98988.34;104656;1259;69646;-63
2023/07/03 04:31:58;;;;;;;10.10;9.20;;;;;;;23.10;100.00;98990.18;104291;1266;73896;-64
2023/07/03 04:34:26;;;;;;;10.80;9.70;;;;;;;23.12;100.00;98987.44;104308;1260;60656;-64
2023/07/03 04:36:54;;;;;;;9.80;9.00;;;;;;;22.96;100.00;98991.55;104443;1254;60083;-63
2023/07/03 04:39:23;;;;;;;;;;;;;;;22.92;100.00;98999.69;104582;1260;73920;-63
2023/07/03 04:41:50;;;;;;;10.70;9.40;;;;;;;22.94;100.00;99007.17;104463;1254;69591;-64
2023/07/03 04:44:18;;;;;;;10.80;9.90;;;;;;;22.93;100.00;99012.23;104207;1278;72272;-66
2023/07/03 04:46:46;;;;;;;10.00;9.10;;;;;;;22.96;100.00;99013.69;104306;1261;61437;-63
2023/07/03 04:49:13;;;;;;;;;;;;;;;22.97;100.00;99018.31;104420;1260;60559;-63
2023/07/03 04:51:42;;;;;;;10.10;9.20;;;;;;;22.98;100.00;99023.38;104328;1259;73988;-63
2023/07/03 04:54:10;;;;;;;11.50;10.40;;;;;;;22.97;100.00;99026.56;104395;1254;69083;-63
2023/07/03 04:56:37;;;;;;;;;;;;;;;23.00;100.00;99033.65;104360;1272;72278;-64
2023/07/03 04:59:05;;;;;;;;;;;;;;;23.01;100.00;99033.79;104374;1263;62483;-64
2023/07/03 08:30:30;;;;;;;2.10;2.00;;;;;;;26.81;100.00;99148.67;102041;1285;601858;-58
2023/07/03 08:32:59;;;;;;;2.80;2.60;;;;;;;26.84;100.00;99149.60;103609;1267;59499;-58
2023/07/03 08:35:27;;;;;;;3.80;1.90;;;;;;;26.92;100.00;99147.73;103683;1269;60059;-58
2023/07/03 08:37:59;;;;;;;2.10;2.00;;;;;;;27.04;100.00;99141.44;103559;1271;71845;-60
2023/07/03 08:40:26;;;;;;;1.90;1.80;;;;;;;27.18;99.88;99143.40;103618;1268;69298;-59
2023/07/03 08:42:59;;;;;;;4.40;2.30;;;;;;;27.29;99.42;99146.40;103096;1283;72423;-59
2023/07/03 08:45:37;;;;;;;5.20;2.80;;;;;;;27.42;100.00;99148.29;103856;1269;62107;-59
2023/07/03 08:48:18;;;;;;;4.70;3.40;;;;;;;27.56;99.64;99147.15;103662;1269;59374;-60
2023/07/03 08:50:48;;;;;;;3.40;3.00;;;;;;;27.69;100.00;99147.90;103776;1269;73058;-58
2023/07/03 08:53:18;;;;;;;3.80;3.50;;;;;;;27.90;100.00;99148.38;103703;1265;69418;-59
2023/07/03 08:55:59;;;;;;;3.60;3.30;;;;;;;28.13;99.65;99147.48;103713;1279;73228;-57
2023/07/03 08:58:27;;;;;;;5.30;3.60;;;;;;;28.23;100.00;99150.75;103861;1266;59780;-59
2023/07/03 09:01:41;;;;;;;3.80;3.40;;;;;;;28.30;98.50;99149.37;103800;1264;60232;-57
2023/07/03 09:04:12;;;;;;;4.60;4.10;;;;;;;28.27;99.15;99146.23;103390;1277;72879;-59
2023/07/03 09:06:50;;;;;;;5.50;4.00;;;;;;;28.27;100.00;99152.20;103835;1264;69177;-61
2023/07/03 09:09:25;;;;;;;4.40;3.80;;;;;;;28.19;98.08;99155.42;104113;1261;71958;-63
2023/07/03 09:12:04;;;;;;;4.60;4.20;;;;;;;28.16;99.91;99152.91;104519;1254;59766;-59
2023/07/03 09:14:37;;;;;;;4.60;3.80;;;;;;;28.28;99.94;99148.65;104363;1257;60377;-59
2023/07/03 09:17:07;;;;;;;5.60;3.60;;;;;;;28.39;99.80;99146.42;106744;1254;73646;-61
2023/07/03 09:19:37;;;;;;;4.10;3.60;;;;;;;28.39;100.00;99148.11;104588;1258;69110;-59
2023/07/03 09:22:05;;;;;;;3.60;3.20;;;;;;;28.39;100.00;99150.78;104419;1261;72899;-59
2023/07/03 09:24:37;;;;;;;5.00;3.10;;;;;;;28.36;99.19;99152.55;104577;1257;60118;-60
2023/07/03 09:27:07;;;;;;;4.20;3.80;;;;;;;28.27;99.71;99154.45;104393;1261;59759;-60
2023/07/03 09:29:36;;;;;;;5.80;3.40;;;;;;;28.12;95.11;99159.89;104504;1259;73307;-59
2023/07/03 09:32:05;;;;;;;3.70;3.40;;;;;;;28.03;99.95;99163.67;104316;1257;69637;-57
2023/07/03 09:34:58;;;;;;;4.60;3.60;;;;;;;27.94;99.85;99159.70;104337;1267;73056;-58
2023/07/03 09:37:27;;;;;;;5.30;4.10;;;;;;;27.90;100.00;99162.27;104353;1260;60056;-58
2023/07/03 09:39:55;;;;;;;6.20;3.50;;;;;;;27.88;100.00;99159.45;104303;1257;60108;-57
2023/07/03 09:42:25;;;;;;;6.00;4.30;;;;;;;27.83;100.00;99165.07;104323;1256;73480;-58
2023/07/03 09:44:52;;;;;;;5.90;3.40;;;;;;;27.82;100.00;99163.23;104226;1263;69684;-57
2023/07/03 09:47:25;;;;;;;8.60;3.50;;;;;;;27.78;100.00;99172.27;104320;1259;73146;-57
2023/07/03 09:49:54;;;;;;;6.60;3.80;;;;;;;27.72;100.00;99175.21;104235;1256;59890;-57
2023/07/03 09:52:23;;;;;;;5.30;4.60;;;;;;;27.64;100.00;99173.84;104107;1264;60708;-57
2023/07/03 09:54:51;;;;;;;4.90;4.50;;;;;;;27.66;100.00;99177.27;104397;1257;72845;-57
2023/07/03 09:57:27;;;;;;;5.70;4.10;;;;;;;27.63;100.00;99176.56;106339;1255;68378;-59
2023/07/03 10:00:11;;;;;;;4.90;4.40;;;;;;;27.55;100.00;99178.70;107983;1257;72357;-57
2023/07/03 10:02:39;;;;;;;6.70;4.40;;;;;;;27.47;100.00;99178.06;104693;1260;60226;-58
2023/07/03 10:05:17;;;;;;;5.00;4.40;;;;;;;27.46;100.00;99175.10;104423;1257;59961;-57
2023/07/03 11:49:48;;;;;;;3.30;2.50;;;;;;;29.15;75.68;99140.23;101705;1290;600912;-59
2023/07/03 11:52:30;;;;;;;2.60;2.40;;;;;;;29.42;75.64;99136.80;104144;1269;59898;-59
2023/07/03 11:55:04;;;;;;;4.10;2.80;;;;;;;29.55;78.12;99136.35;103764;1270;60038;-59
2023/07/03 11:57:34;;;;;;;4.70;2.60;;;;;;;29.66;75.74;99138.28;103729;1265;72892;-59
2023/07/03 12:00:27;;;;;;;2.50;2.30;;;;;;;29.70;74.35;99141.21;104498;1264;69134;-57
2023/07/03 12:03:01;;;;;;;3.00;2.30;;;;;;;29.69;72.09;99141.33;106595;1264;375381;-57
2023/07/03 12:05:42;;;;;;;2.30;2.10;;;;;;;29.60;69.38;99136.07;104388;1275;61175;-56
2023/07/03 12:08:22;;;;;;;2.90;2.30;;;;;;;29.48;71.02;99137.02;104366;1269;59712;-56
2023/07/03 12:10:52;;;;;;;2.80;2.30;;;;;;;29.41;72.29;99132.59;104485;1261;71913;-57
2023/07/03 12:13:41;;;;;;;2.30;2.10;;;;;;;29.43;72.93;99128.02;104296;1269;70691;-57
2023/07/03 12:16:21;;;;;;;2.80;2.10;;;;;;;29.46;72.26;99126.05;104053;1264;73464;-57
2023/07/03 12:19:06;;;;;;;2.10;1.90;;;;;;;29.48;72.80;99122.80;104209;1266;60115;-57
2023/07/03 12:21:36;;;;;;;2.00;1.90;;;;;;;29.36;70.47;99121.83;104290;1268;60488;-57
2023/07/03 12:24:23;;;;;;;4.70;2.20;;;;;;;29.25;71.03;99118.98;104083;1261;73486;-58
2023/07/03 12:27:05;;;;;;;1.80;1.70;;;;;;;29.26;73.37;99115.73;103969;1264;69528;-58
2023/07/03 12:29:34;;;;;;;2.10;1.80;;;;;;;29.36;69.16;99110.21;104177;1261;72370;-58
2023/07/03 12:32:07;;;;;;;1.90;1.70;;;;;;;29.47;67.46;99107.81;104305;1264;59808;-57
2023/07/03 12:34:37;;;;;;;1.60;1.50;;;;;;;29.62;64.35;99103.91;104000;1260;60122;-58
2023/07/03 12:37:08;;;;;;;1.70;1.60;;;;;;;29.75;65.49;99100.48;104238;1266;72854;-58
2023/07/03 12:39:36;;;;;;;1.70;1.60;;;;;;;29.88;62.81;99103.74;104123;1259;69371;-58
2023/07/03 12:42:05;;;;;;;;;;;;;;;29.94;62.85;99096.71;104004;1263;72924;-57
2023/07/03 12:44:33;;;;;;;1.40;1.30;;;;;;;30.03;60.96;99102.04;103904;1279;59725;-57
2023/07/03 12:47:15;;;;;;;1.70;1.60;;;;;;;30.06;60.24;99091.56;104379;1264;59704;-57
2023/07/03 12:49:47;;;;;;;1.50;1.40;;;;;;;30.18;59.57;99094.69;104244;1265;73862;-57
2023/07/03 12:52:15;;;;;;;3.30;1.20;;;;;;;30.21;55.97;99091.85;104219;1273;70164;-58
2023/07/03 12:54:43;;;;;;;1.50;1.40;;;;;;;30.22;56.02;99091.92;104032;1266;75464;-58
2023/07/03 12:57:10;;;;;;;2.10;1.40;;;;;;;30.23;57.62;99092.73;104111;1263;60963;-58
2023/07/03 12:59:38;;;;;;;3.40;1.40;;;;;;;30.20;59.18;99091.76;104817;1254;60122;-58
2023/07/03 13:02:06;;;;;;;;;;;;;;;30.18;59.13;99093.04;104627;1260;73244;-59
2023/07/03 13:04:34;;;;;;;1.40;1.30;;;;;;;30.21;59.26;99088.30;104538;1270;70148;-57
2023/07/03 13:07:02;;;;;;;2.20;1.60;;;;;;;30.24;56.69;99089.30;104496;1266;71235;-57
2023/07/03 13:09:30;;;;;;;2.80;1.30;;;;;;;30.27;56.06;99089.93;104434;1252;59857;-57
2023/07/03 13:11:58;;;;;;;1.80;1.40;;;;;;;30.36;54.33;99088.75;104867;1257;59703;-58
2023/07/03 13:14:27;;;;;;;1.70;1.60;;;;;;;30.42;54.37;99086.17;104514;1257;72732;-58
2023/07/03 13:16:58;;;;;;;1.60;1.50;;;;;;;30.39;53.47;99090.21;106736;1251;69227;-58
2023/07/03 13:19:34;;;;;;;3.50;1.50;;;;;;;30.36;52.66;99090.55;108269;1254;72431;-58
2023/07/03 13:22:07;;;;;;;2.20;1.80;;;;;;;30.34;53.60;99087.49;105108;1253;59761;-58
2023/07/03 13:24:55;;;;;;;1.30;1.30;;;;;;;30.27;55.08;99086.13;105131;1265;60404;-58
2023/07/03 13:27:25;;;;;;;1.70;1.50;;;;;;;30.27;56.51;99081.84;104631;1256;73707;-58
2023/07/03 13:29:57;;;;;;;1.40;1.30;;;;;;;30.37;55.73;99087.72;104670;1251;69117;-58
2023/07/03 13:32:25;;;;;;;1.30;1.10;;;;;;;30.45;54.39;99083.80;104813;1260;72691;-58
2023/07/03 13:35:02;;;;;;;1.30;1.20;;;;;;;30.56;53.03;99080.55;104507;1256;60821;-58
2023/07/03 13:37:35;;;;;;;2.50;1.30;;;;;;;30.65;52.48;99086.09;104792;1251;59960;-58
2023/07/03 13:40:04;;;;;;;1.10;1.00;;;;;;;30.74;51.77;99083.34;104563;1257;73252;-58
2023/07/03 13:42:32;;;;;;;1.60;1.50;;;;;;;30.85;53.40;99087.59;104754;1266;70012;-57
2023/07/03 13:44:59;;;;;;;;;;;;;;;30.95;52.96;99089.85;104532;1251;71522;-58
2023/07/03 13:47:27;;;;;;;1.60;1.50;;;;;;;30.94;52.64;99084.67;104395;1264;59755;-58
2023/07/03 13:49:56;;;;;;;3.10;1.30;;;;;;;30.91;52.87;99091.73;104610;1257;59728;-58
2023/07/03 13:52:24;;;;;;;1.90;1.50;;;;;;;30.93;53.73;99098.28;104687;1257;72708;-59
2023/07/03 13:54:52;;;;;;;2.70;1.60;;;;;;;30.98;52.74;99096.27;104693;1256;69648;-58
2023/07/03 13:57:19;;;;;;;1.60;1.50;;;;;;;31.05;53.45;99095.59;104906;1253;73322;-58
2023/07/03 13:59:47;;;;;;;3.70;1.70;;;;;;;31.02;53.12;99102.65;104553;1254;60929;-59
2023/07/03 14:02:15;;;;;;;1.80;1.60;;;;;;;30.89;54.31;99105.33;104492;1254;60142;-59
2023/07/03 14:04:43;;;;;;;2.00;1.90;;;;;;;30.79;54.82;99109.63;108151;1253;73018;-60
2023/07/03 14:07:11;;;;;;;2.20;1.80;;;;;;;30.60;54.68;99106.55;107630;1256;69466;-59
2023/07/03 14:09:38;;;;;;;2.40;1.60;;;;;;;30.46;55.92;99105.33;105166;1255;72903;-60
2023/07/03 14:12:06;;;;;;;;;;;;;;;30.41;57.78;99108.21;104872;1257;60743;-58
2023/07/03 14:14:34;;;;;;;1.60;1.50;;;;;;;30.35;57.63;99107.54;104477;1257;60216;-60
2023/07/03 14:17:02;;;;;;;6.00;1.60;;;;;;;30.37;58.31;99108.96;104458;1260;73486;-59
2023/07/03 14:19:30;;;;;;;2.20;1.80;;;;;;;30.52;60.08;99110.35;104529;1256;69916;-60
2023/07/03 14:21:57;;;;;;;;;;;;;;;30.75;60.29;99115.40;104495;1256;72940;-60
2023/07/03 14:24:26;;;;;;;1.70;1.40;;;;;;;30.87;56.79;99120.73;104598;1265;59967;-60
2023/07/03 14:26:54;;;;;;;3.50;1.40;;;;;;;30.92;55.89;99120.88;104402;1263;59873;-59
2023/07/03 14:29:22;;;;;;;1.60;1.30;;;;;;;30.90;54.24;99119.08;104588;1257;73022;-60
2023/07/03 14:31:50;;;;;;;4.00;1.70;;;;;;;30.78;52.91;99115.10;104764;1257;69139;-60
2023/07/03 14:34:18;;;;;;;2.50;1.60;;;;;;;30.76;52.93;99116.05;107275;1254;72414;-61
2023/07/03 14:36:45;;;;;;;;;;;;;;;30.78;52.47;99114.67;108474;1253;59832;-60
2023/07/03 14:39:13;;;;;;;1.40;1.30;;;;;;;30.87;54.15;99114.23;104946;1253;59849;-60
2023/07/03 14:41:41;;;;;;;2.20;1.70;;;;;;;30.96;53.79;99113.89;104912;1257;71744;-60
2023/07/03 14:44:08;;;;;;;2.10;1.90;;;;;;;30.99;52.81;99115.40;104645;1266;69436;-59
2023/07/03 14:46:36;;;;;;;2.90;1.40;;;;;;;30.87;52.30;99116.02;104639;1254;72501;-60
2023/07/03 14:49:04;;;;;;;2.20;1.60;;;;;;;30.88;53.65;99116.73;104677;1253;59807;-60
2023/07/03 14:51:32;;;;;;;2.10;1.60;;;;;;;30.96;52.84;99116.53;104716;1257;59809;-59
2023/07/03 14:54:00;;;;;;;3.90;1.50;;;;;;;31.16;53.14;99114.33;104733;1256;74285;-59
2023/07/03 14:56:29;;;;;;;3.10;2.00;;;;;;;31.83;51.26;99109.67;104865;1257;69739;-59
2023/07/03 14:58:57;;;;;;;2.10;1.70;;;;;;;33.40;46.68;99101.44;104799;1256;72515;-59
2023/07/03 15:01:26;;;;;;;;;;;;;;;34.83;42.95;99100.30;104462;1257;60775;-59
2023/07/03 15:03:55;;;;;;;1.60;1.50;;;;;;;36.24;39.74;99099.55;104577;1257;59666;-63
2023/07/03 15:06:22;;;;;;;1.80;1.70;;;;;;;37.21;37.12;99098.70;104531;1257;73378;-59
2023/07/03 15:08:50;;;;;;;3.70;1.70;;;;;;;36.68;36.67;99099.20;104360;1270;70154;-60
2023/07/03 15:11:18;;;;;;;1.70;1.50;;;;;;;36.74;36.94;99100.67;104549;1264;72384;-59
2023/07/03 15:13:46;;;;;;;6.80;1.90;;;;;;;37.59;35.53;99100.02;104763;1257;59795;-58
2023/07/03 15:16:14;;;;;;;2.30;1.70;;;;;;;38.57;33.75;99102.25;104474;1257;60722;-60
2023/07/03 15:18:42;;;;;;;1.60;1.50;;;;;;;39.18;32.68;99100.98;108451;1251;73133;-59
2023/07/03 15:21:10;;;;;;;2.00;1.60;;;;;;;39.71;32.53;99099.78;107572;1254;68337;-59
2023/07/03 15:23:37;;;;;;;3.40;1.50;;;;;;;40.44;31.54;99101.95;104881;1266;72505;-59
2023/07/03 15:26:06;;;;;;;1.60;1.50;;;;;;;40.20;31.22;99106.37;104509;1265;59774;-59
2023/07/03 15:28:33;;;;;;;4.10;1.60;;;;;;;40.16;31.08;99108.02;104421;1257;60010;-59
2023/07/03 15:31:02;;;;;;;1.50;1.40;;;;;;;40.56;30.73;99104.91;104498;1256;74696;-59
2023/07/03 15:33:30;;;;;;;2.90;1.70;;;;;;;40.13;30.66;99110.86;104886;1256;69128;-59
2023/07/03 15:36:00;;;;;;;1.60;1.30;;;;;;;39.67;30.66;99114.10;104515;1257;72882;-58
2023/07/03 15:38:28;;;;;;;1.60;1.50;;;;;;;39.01;31.58;99115.04;104531;1257;61867;-58
2023/07/03 15:40:57;;;;;;;1.50;1.40;;;;;;;37.97;32.76;99122.77;104615;1254;59727;-59
2023/07/03 15:43:25;;;;;;;2.70;1.50;;;;;;;36.89;34.13;99129.06;104965;1258;72843;-58
2023/07/03 15:46:04;;;;;;;1.70;1.60;;;;;;;35.83;35.81;99134.23;104543;1257;70128;-59
2023/07/03 15:48:32;;;;;;;1.90;1.70;;;;;;;34.90;37.12;99134.77;104326;1258;72849;-58
2023/07/03 15:51:00;;;;;;;2.50;1.70;;;;;;;34.28;38.05;99140.37;104433;1256;59960;-59
2023/07/03 15:53:28;;;;;;;4.40;1.90;;;;;;;33.82;39.22;99140.20;104540;1254;60712;-58
2023/07/03 15:56:29;;;;;;;1.50;1.40;;;;;;;33.83;40.54;99147.15;104518;1256;72885;-58
2023/07/03 15:58:57;;;;;;;2.00;1.80;;;;;;;35.01;39.43;99147.39;104237;1260;69495;-58
2023/07/03 16:01:26;;;;;;;1.90;1.80;;;;;;;35.99;35.94;99148.34;104347;1254;72746;-59
2023/07/03 16:03:55;;;;;;;2.00;1.20;;;;;;;36.06;35.82;99148.08;106150;1251;60516;-58
2023/07/03 16:06:24;;;;;;;3.20;1.60;;;;;;;35.52;36.19;99152.66;105978;1257;60456;-58
2023/07/03 16:08:54;;;;;;;6.10;1.70;;;;;;;35.30;36.42;99155.78;108468;1251;74458;-58
2023/07/03 16:11:22;;;;;;;5.90;1.70;;;;;;;34.90;37.10;99155.45;105860;1254;69985;-58
2023/07/03 16:13:50;;;;;;;2.00;1.90;;;;;;;34.36;37.95;99157.84;104956;1257;72384;-58
2023/07/03 16:16:20;;;;;;;4.00;1.30;;;;;;;33.87;38.35;99162.48;104424;1253;60579;-58
2023/07/03 16:18:50;;;;;;;1.80;1.60;;;;;;;33.52;39.14;99167.17;104417;1257;60461;-58
2023/07/03 16:21:19;;;;;;;2.40;1.90;;;;;;;33.12;40.02;99168.85;104523;1256;73857;-58
2023/07/03 16:23:49;;;;;;;1.90;1.50;;;;;;;32.60;39.83;99167.69;104373;1260;69353;-57
2023/07/03 16:26:16;;;;;;;1.90;1.80;;;;;;;32.07;40.42;99172.25;104373;1255;72882;-58
2023/07/03 16:28:44;;;;;;;1.50;1.40;;;;;;;31.56;42.15;99176.63;104374;1254;61158;-58
2023/07/03 16:31:14;;;;;;;1.80;1.70;;;;;;;31.28;43.66;99175.78;104533;1254;60533;-57
2023/07/03 16:33:43;;;;;;;5.20;1.90;;;;;;;31.05;44.59;99178.58;104256;1260;74312;-58
2023/07/03 16:36:21;;;;;;;5.80;2.20;;;;;;;30.82;45.28;99183.91;104628;1254;69343;-58
2023/07/03 16:38:57;;;;;;;2.30;1.70;;;;;;;30.50;44.97;99185.98;104547;1257;72502;-57
2023/07/03 16:41:26;;;;;;;2.10;1.70;;;;;;;30.19;45.50;99184.80;104556;1258;60536;-58
2023/07/03 16:43:55;;;;;;;3.10;1.50;;;;;;;29.92;46.10;99188.71;104730;1257;60604;-58
2023/07/03 16:46:24;;;;;;;3.10;1.70;;;;;;;29.70;47.01;99193.38;104286;1257;72748;-57
2023/07/03 16:48:53;;;;;;;1.90;1.70;;;;;;;29.52;47.63;99194.27;104595;1257;70063;-57